sensor_id;sensor_type;location;lat;lon;timestamp;temperature;humidity
23544;DHT22;11950;51.230;4.012;2022-11-20T00:01:07;6.70;99.90
23544;DHT22;11950;51.230;4.012;2022-11-20T00:03:34;6.20;99.90
23544;DHT22;11950;51.230;4.012;2022-11-20T00:06:02;6.20;99.90
23544;DHT22;11950;51.230;4.012;2022-11-20T00:08:29;6.20;99.90
23544;DHT22;11950;51.230;4.012;2022-11-20T00:10:55;6.10;99.90
23544;DHT22;11950;51.230;4.012;2022-11-20T00:13:22;6.20;99.90
23544;DHT22;11950;51.230;4.012;2022-11-20T00:15:48;6.20;99.90
23544;DHT22;11950;51.230;4.012;2022-11-20T00:18:14;6.20;99.90
23544;DHT22;11950;51.230;4.012;2022-11-20T00:20:40;6.20;99.90
23544;DHT22;11950;51.230;4.012;2022-11-20T00:23:06;6.20;99.90
23544;DHT22;11950;51.230;4.012;2022-11-20T00:25:36;6.20;99.90
23544;DHT22;11950;51.230;4.012;2022-11-20T00:28:02;6.20;99.90
23544;DHT22;11950;51.230;4.012;2022-11-20T00:30:28;6.20;99.90
23544;DHT22;11950;51.230;4.012;2022-11-20T00:32:56;6.20;99.90
23544;DHT22;11950;51.230;4.012;2022-11-20T00:35:23;6.20;99.90
23544;DHT22;11950;51.230;4.012;2022-11-20T00:37:49;6.10;99.90
23544;DHT22;11950;51.230;4.012;2022-11-20T00:40:16;6.10;99.90
23544;DHT22;11950;51.230;4.012;2022-11-20T00:42:42;6.10;99.90
23544;DHT22;11950;51.230;4.012;2022-11-20T00:45:08;6.10;99.90
23544;DHT22;11950;51.230;4.012;2022-11-20T00:47:35;6.10;99.90
23544;DHT22;11950;51.230;4.012;2022-11-20T00:50:01;6.00;99.90
23544;DHT22;11950;51.230;4.012;2022-11-20T00:52:27;6.10;99.90
23544;DHT22;11950;51.230;4.012;2022-11-20T00:54:53;6.20;99.90
23544;DHT22;11950;51.230;4.012;2022-11-20T00:57:19;6.20;99.90
23544;DHT22;11950;51.230;4.012;2022-11-20T00:59:46;6.20;99.90
23544;DHT22;11950;51.230;4.012;2022-11-20T01:02:12;6.20;99.90
23544;DHT22;11950;51.230;4.012;2022-11-20T01:04:38;6.10;99.90
23544;DHT22;11950;51.230;4.012;2022-11-20T01:07:04;6.10;99.90
23544;DHT22;11950;51.230;4.012;2022-11-20T01:09:30;6.20;99.90
23544;DHT22;11950;51.230;4.012;2022-11-20T01:11:57;6.20;99.90
23544;DHT22;11950;51.230;4.012;2022-11-20T01:14:23;6.20;99.90
23544;DHT22;11950;51.230;4.012;2022-11-20T01:16:50;6.10;99.90
23544;DHT22;11950;51.230;4.012;2022-11-20T01:19:19;6.10;99.90
23544;DHT22;11950;51.230;4.012;2022-11-20T01:21:49;6.00;99.90
23544;DHT22;11950;51.230;4.012;2022-11-20T01:24:18;6.00;99.90
23544;DHT22;11950;51.230;4.012;2022-11-20T01:26:46;6.10;99.90
23544;DHT22;11950;51.230;4.012;2022-11-20T01:29:16;6.10;99.90
23544;DHT22;11950;51.230;4.012;2022-11-20T01:31:43;6.10;99.90
23544;DHT22;11950;51.230;4.012;2022-11-20T01:34:12;6.10;99.90
23544;DHT22;11950;51.230;4.012;2022-11-20T01:36:39;6.10;99.90
23544;DHT22;11950;51.230;4.012;2022-11-20T01:39:12;6.10;99.90
23544;DHT22;11950;51.230;4.012;2022-11-20T01:41:39;6.10;99.90
23544;DHT22;11950;51.230;4.012;2022-11-20T01:47:50;6.10;99.90
23544;DHT22;11950;51.230;4.012;2022-11-20T01:50:23;6.10;99.90
23544;DHT22;11950;51.230;4.012;2022-11-20T01:52:54;6.10;99.90
23544;DHT22;11950;51.230;4.012;2022-11-20T01:55:34;6.00;99.90
23544;DHT22;11950;51.230;4.012;2022-11-20T01:58:03;6.00;99.90
23544;DHT22;11950;51.230;4.012;2022-11-20T02:00:29;6.00;99.90
23544;DHT22;11950;51.230;4.012;2022-11-20T02:03:06;6.00;99.90
23544;DHT22;11950;51.230;4.012;2022-11-20T02:08:06;5.90;99.90
23544;DHT22;11950;51.230;4.012;2022-11-20T02:10:33;5.90;99.90
23544;DHT22;11950;51.230;4.012;2022-11-20T02:12:59;5.90;99.90
23544;DHT22;11950;51.230;4.012;2022-11-20T02:15:46;5.90;99.90
23544;DHT22;11950;51.230;4.012;2022-11-20T02:18:15;5.90;99.90
23544;DHT22;11950;51.230;4.012;2022-11-20T02:20:44;5.80;99.90
23544;DHT22;11950;51.230;4.012;2022-11-20T02:23:35;5.80;99.90
23544;DHT22;11950;51.230;4.012;2022-11-20T02:25:58;5.80;99.90
23544;DHT22;11950;51.230;4.012;2022-11-20T02:28:25;5.80;99.90
23544;DHT22;11950;51.230;4.012;2022-11-20T02:30:51;5.80;99.90
23544;DHT22;11950;51.230;4.012;2022-11-20T02:33:17;5.80;99.90
23544;DHT22;11950;51.230;4.012;2022-11-20T02:35:45;5.80;99.90
23544;DHT22;11950;51.230;4.012;2022-11-20T02:38:13;5.70;99.90
23544;DHT22;11950;51.230;4.012;2022-11-20T02:40:40;5.70;99.90
23544;DHT22;11950;51.230;4.012;2022-11-20T02:43:07;5.80;99.90
23544;DHT22;11950;51.230;4.012;2022-11-20T02:45:33;5.70;99.90
23544;DHT22;11950;51.230;4.012;2022-11-20T02:47:59;5.80;99.90
23544;DHT22;11950;51.230;4.012;2022-11-20T02:50:26;5.80;99.90
23544;DHT22;11950;51.230;4.012;2022-11-20T02:52:52;5.90;99.90
23544;DHT22;11950;51.230;4.012;2022-11-20T02:55:18;5.80;99.90
23544;DHT22;11950;51.230;4.012;2022-11-20T02:57:44;5.80;99.90
23544;DHT22;11950;51.230;4.012;2022-11-20T03:00:11;5.70;99.90
23544;DHT22;11950;51.230;4.012;2022-11-20T03:02:38;5.80;99.90
23544;DHT22;11950;51.230;4.012;2022-11-20T03:05:04;5.90;99.90
23544;DHT22;11950;51.230;4.012;2022-11-20T03:07:30;6.00;99.90
23544;DHT22;11950;51.230;4.012;2022-11-20T03:09:56;6.00;99.90
23544;DHT22;11950;51.230;4.012;2022-11-20T03:12:23;6.00;99.90
23544;DHT22;11950;51.230;4.012;2022-11-20T03:14:49;6.00;99.90
23544;DHT22;11950;51.230;4.012;2022-11-20T03:17:16;6.00;99.90
23544;DHT22;11950;51.230;4.012;2022-11-20T03:19:42;5.90;99.90
23544;DHT22;11950;51.230;4.012;2022-11-20T03:22:08;5.90;99.90
23544;DHT22;11950;51.230;4.012;2022-11-20T03:24:35;5.90;99.90
23544;DHT22;11950;51.230;4.012;2022-11-20T03:27:01;5.90;99.90
23544;DHT22;11950;51.230;4.012;2022-11-20T03:29:27;5.80;99.90
23544;DHT22;11950;51.230;4.012;2022-11-20T03:31:53;5.90;99.90
23544;DHT22;11950;51.230;4.012;2022-11-20T03:34:19;6.00;99.90
23544;DHT22;11950;51.230;4.012;2022-11-20T03:36:46;6.00;99.90
23544;DHT22;11950;51.230;4.012;2022-11-20T03:39:12;6.00;99.90
23544;DHT22;11950;51.230;4.012;2022-11-20T03:41:40;5.90;99.90
23544;DHT22;11950;51.230;4.012;2022-11-20T03:44:08;5.90;99.90
23544;DHT22;11950;51.230;4.012;2022-11-20T03:46:35;5.90;99.90
23544;DHT22;11950;51.230;4.012;2022-11-20T03:49:02;5.70;99.90
23544;DHT22;11950;51.230;4.012;2022-11-20T03:51:30;5.60;99.90
23544;DHT22;11950;51.230;4.012;2022-11-20T03:53:59;5.60;99.90
23544;DHT22;11950;51.230;4.012;2022-11-20T03:56:27;6.10;99.90
23544;DHT22;11950;51.230;4.012;2022-11-20T03:58:54;5.50;99.90
23544;DHT22;11950;51.230;4.012;2022-11-20T04:01:23;5.50;99.90
23544;DHT22;11950;51.230;4.012;2022-11-20T04:03:52;5.50;99.90
23544;DHT22;11950;51.230;4.012;2022-11-20T04:06:27;5.40;99.90
23544;DHT22;11950;51.230;4.012;2022-11-20T04:08:55;5.40;99.90
23544;DHT22;11950;51.230;4.012;2022-11-20T04:11:27;5.60;99.90
23544;DHT22;11950;51.230;4.012;2022-11-20T04:14:04;5.20;99.90
23544;DHT22;11950;51.230;4.012;2022-11-20T04:16:33;5.20;99.90
23544;DHT22;11950;51.230;4.012;2022-11-20T04:19:01;5.20;99.90
23544;DHT22;11950;51.230;4.012;2022-11-20T04:21:28;5.20;99.90
23544;DHT22;11950;51.230;4.012;2022-11-20T04:23:55;5.10;99.90
23544;DHT22;11950;51.230;4.012;2022-11-20T04:26:24;5.10;99.90
23544;DHT22;11950;51.230;4.012;2022-11-20T04:28:51;5.20;99.90
23544;DHT22;11950;51.230;4.012;2022-11-20T04:31:20;5.00;99.90
23544;DHT22;11950;51.230;4.012;2022-11-20T04:33:47;5.00;99.90
23544;DHT22;11950;51.230;4.012;2022-11-20T04:36:15;5.00;99.90
23544;DHT22;11950;51.230;4.012;2022-11-20T04:38:42;4.90;99.90
23544;DHT22;11950;51.230;4.012;2022-11-20T04:41:18;4.90;99.90
23544;DHT22;11950;51.230;4.012;2022-11-20T04:43:52;5.00;99.90
23544;DHT22;11950;51.230;4.012;2022-11-20T04:46:20;5.00;99.90
23544;DHT22;11950;51.230;4.012;2022-11-20T04:48:47;5.00;99.90
23544;DHT22;11950;51.230;4.012;2022-11-20T04:51:13;5.00;99.90
23544;DHT22;11950;51.230;4.012;2022-11-20T04:53:39;5.00;99.90
23544;DHT22;11950;51.230;4.012;2022-11-20T04:56:08;5.10;99.90
23544;DHT22;11950;51.230;4.012;2022-11-20T04:58:36;5.10;99.90
23544;DHT22;11950;51.230;4.012;2022-11-20T05:01:04;5.10;99.90
23544;DHT22;11950;51.230;4.012;2022-11-20T05:03:30;5.10;99.90
23544;DHT22;11950;51.230;4.012;2022-11-20T05:05:59;5.20;99.90
23544;DHT22;11950;51.230;4.012;2022-11-20T05:08:25;5.20;99.90
23544;DHT22;11950;51.230;4.012;2022-11-20T05:10:52;5.40;99.90
23544;DHT22;11950;51.230;4.012;2022-11-20T05:13:18;5.60;99.90
23544;DHT22;11950;51.230;4.012;2022-11-20T05:15:44;5.40;99.90
23544;DHT22;11950;51.230;4.012;2022-11-20T05:18:10;5.90;99.90
23544;DHT22;11950;51.230;4.012;2022-11-20T05:20:37;5.40;99.90
23544;DHT22;11950;51.230;4.012;2022-11-20T05:23:03;5.40;99.90
23544;DHT22;11950;51.230;4.012;2022-11-20T05:25:29;5.50;99.90
23544;DHT22;11950;51.230;4.012;2022-11-20T05:27:55;5.40;99.90
23544;DHT22;11950;51.230;4.012;2022-11-20T05:30:21;5.40;99.90
23544;DHT22;11950;51.230;4.012;2022-11-20T05:32:48;5.40;99.90
23544;DHT22;11950;51.230;4.012;2022-11-20T05:35:14;5.40;99.90
23544;DHT22;11950;51.230;4.012;2022-11-20T05:37:40;5.50;99.90
23544;DHT22;11950;51.230;4.012;2022-11-20T05:40:07;5.50;99.90
23544;DHT22;11950;51.230;4.012;2022-11-20T05:42:33;5.50;99.90
23544;DHT22;11950;51.230;4.012;2022-11-20T05:45:02;5.50;99.90
23544;DHT22;11950;51.230;4.012;2022-11-20T05:47:32;5.70;99.90
23544;DHT22;11950;51.230;4.012;2022-11-20T05:49:59;4.50;99.90
23544;DHT22;11950;51.230;4.012;2022-11-20T05:52:28;5.50;99.90
23544;DHT22;11950;51.230;4.012;2022-11-20T05:54:55;5.50;99.90
23544;DHT22;11950;51.230;4.012;2022-11-20T05:57:21;5.50;99.90
23544;DHT22;11950;51.230;4.012;2022-11-20T05:59:48;5.80;99.90
23544;DHT22;11950;51.230;4.012;2022-11-20T06:02:14;5.60;99.90
23544;DHT22;11950;51.230;4.012;2022-11-20T06:04:40;5.60;99.90
23544;DHT22;11950;51.230;4.012;2022-11-20T06:07:06;5.60;99.90
23544;DHT22;11950;51.230;4.012;2022-11-20T06:09:33;5.60;99.90
23544;DHT22;11950;51.230;4.012;2022-11-20T06:11:59;5.60;99.90
23544;DHT22;11950;51.230;4.012;2022-11-20T06:14:25;5.60;99.90
23544;DHT22;11950;51.230;4.012;2022-11-20T06:16:51;5.60;99.90
23544;DHT22;11950;51.230;4.012;2022-11-20T06:19:18;5.70;99.90
23544;DHT22;11950;51.230;4.012;2022-11-20T06:21:44;5.60;99.90
23544;DHT22;11950;51.230;4.012;2022-11-20T06:24:10;6.20;99.90
23544;DHT22;11950;51.230;4.012;2022-11-20T06:26:37;5.70;99.90
23544;DHT22;11950;51.230;4.012;2022-11-20T06:29:03;5.70;99.90
23544;DHT22;11950;51.230;4.012;2022-11-20T06:31:29;5.70;99.90
23544;DHT22;11950;51.230;4.012;2022-11-20T06:33:58;5.70;99.90
23544;DHT22;11950;51.230;4.012;2022-11-20T06:36:24;5.70;99.90
23544;DHT22;11950;51.230;4.012;2022-11-20T06:38:51;5.70;99.90
23544;DHT22;11950;51.230;4.012;2022-11-20T06:41:19;5.80;99.90
23544;DHT22;11950;51.230;4.012;2022-11-20T06:43:46;5.70;99.90
23544;DHT22;11950;51.230;4.012;2022-11-20T06:46:13;5.80;99.90
23544;DHT22;11950;51.230;4.012;2022-11-20T06:48:40;5.80;99.90
23544;DHT22;11950;51.230;4.012;2022-11-20T06:51:07;5.90;99.90
23544;DHT22;11950;51.230;4.012;2022-11-20T06:53:34;5.90;99.90
23544;DHT22;11950;51.230;4.012;2022-11-20T06:56:01;5.90;99.90
23544;DHT22;11950;51.230;4.012;2022-11-20T06:58:28;6.10;99.90
23544;DHT22;11950;51.230;4.012;2022-11-20T07:01:01;6.00;99.90
23544;DHT22;11950;51.230;4.012;2022-11-20T07:03:28;5.90;99.90
23544;DHT22;11950;51.230;4.012;2022-11-20T07:05:55;6.20;99.90
23544;DHT22;11950;51.230;4.012;2022-11-20T07:08:22;6.00;99.90
23544;DHT22;11950;51.230;4.012;2022-11-20T07:10:49;6.10;99.90
23544;DHT22;11950;51.230;4.012;2022-11-20T07:13:15;6.00;99.90
23544;DHT22;11950;51.230;4.012;2022-11-20T07:15:41;6.10;99.90
23544;DHT22;11950;51.230;4.012;2022-11-20T07:18:08;6.90;99.90
23544;DHT22;11950;51.230;4.012;2022-11-20T07:20:34;6.10;99.90
23544;DHT22;11950;51.230;4.012;2022-11-20T07:23:01;6.20;99.90
23544;DHT22;11950;51.230;4.012;2022-11-20T07:25:27;6.20;99.90
23544;DHT22;11950;51.230;4.012;2022-11-20T07:27:58;6.20;99.90
23544;DHT22;11950;51.230;4.012;2022-11-20T07:30:25;6.30;99.90
23544;DHT22;11950;51.230;4.012;2022-11-20T07:32:52;6.30;99.90
23544;DHT22;11950;51.230;4.012;2022-11-20T07:35:19;6.30;99.90
23544;DHT22;11950;51.230;4.012;2022-11-20T07:37:45;6.30;99.90
23544;DHT22;11950;51.230;4.012;2022-11-20T07:40:13;6.60;99.90
23544;DHT22;11950;51.230;4.012;2022-11-20T07:42:50;6.30;99.90
23544;DHT22;11950;51.230;4.012;2022-11-20T07:45:20;6.40;99.90
23544;DHT22;11950;51.230;4.012;2022-11-20T07:47:47;6.40;99.90
23544;DHT22;11950;51.230;4.012;2022-11-20T07:50:14;6.40;99.90
23544;DHT22;11950;51.230;4.012;2022-11-20T07:52:40;6.50;99.90
23544;DHT22;11950;51.230;4.012;2022-11-20T07:55:08;6.40;99.90
23544;DHT22;11950;51.230;4.012;2022-11-20T07:57:34;6.50;99.90
23544;DHT22;11950;51.230;4.012;2022-11-20T08:00:01;6.50;99.90
23544;DHT22;11950;51.230;4.012;2022-11-20T08:02:41;6.50;99.90
23544;DHT22;11950;51.230;4.012;2022-11-20T08:05:10;6.50;99.90
23544;DHT22;11950;51.230;4.012;2022-11-20T08:07:41;6.70;99.90
23544;DHT22;11950;51.230;4.012;2022-11-20T08:10:10;6.60;99.90
23544;DHT22;11950;51.230;4.012;2022-11-20T08:12:44;6.60;99.90
23544;DHT22;11950;51.230;4.012;2022-11-20T08:15:29;6.60;99.90
23544;DHT22;11950;51.230;4.012;2022-11-20T08:18:17;6.60;99.90
23544;DHT22;11950;51.230;4.012;2022-11-20T08:20:44;6.60;99.90
23544;DHT22;11950;51.230;4.012;2022-11-20T08:23:10;6.60;99.90
23544;DHT22;11950;51.230;4.012;2022-11-20T08:25:38;6.60;99.90
23544;DHT22;11950;51.230;4.012;2022-11-20T08:28:06;6.60;99.90
23544;DHT22;11950;51.230;4.012;2022-11-20T08:30:33;6.90;99.90
23544;DHT22;11950;51.230;4.012;2022-11-20T08:33:07;6.80;99.90
23544;DHT22;11950;51.230;4.012;2022-11-20T08:35:38;6.80;99.90
23544;DHT22;11950;51.230;4.012;2022-11-20T08:38:05;6.80;99.90
23544;DHT22;11950;51.230;4.012;2022-11-20T08:40:32;6.80;99.90
23544;DHT22;11950;51.230;4.012;2022-11-20T08:42:58;6.90;99.90
23544;DHT22;11950;51.230;4.012;2022-11-20T08:45:24;6.90;99.90
23544;DHT22;11950;51.230;4.012;2022-11-20T08:47:50;7.00;99.90
23544;DHT22;11950;51.230;4.012;2022-11-20T08:50:17;6.90;99.90
23544;DHT22;11950;51.230;4.012;2022-11-20T08:52:43;7.00;99.90
23544;DHT22;11950;51.230;4.012;2022-11-20T08:55:10;7.00;99.90
23544;DHT22;11950;51.230;4.012;2022-11-20T08:57:37;7.00;99.90
23544;DHT22;11950;51.230;4.012;2022-11-20T09:00:05;7.00;99.90
23544;DHT22;11950;51.230;4.012;2022-11-20T09:02:33;7.10;99.90
23544;DHT22;11950;51.230;4.012;2022-11-20T09:04:59;7.10;99.90
23544;DHT22;11950;51.230;4.012;2022-11-20T09:07:28;7.20;99.90
23544;DHT22;11950;51.230;4.012;2022-11-20T09:09:55;7.20;99.90
23544;DHT22;11950;51.230;4.012;2022-11-20T09:12:21;7.20;99.90
23544;DHT22;11950;51.230;4.012;2022-11-20T09:14:47;7.30;99.90
23544;DHT22;11950;51.230;4.012;2022-11-20T09:17:13;7.30;99.90
23544;DHT22;11950;51.230;4.012;2022-11-20T09:19:41;7.30;99.90
23544;DHT22;11950;51.230;4.012;2022-11-20T09:22:07;7.30;99.90
23544;DHT22;11950;51.230;4.012;2022-11-20T09:24:33;7.40;99.90
23544;DHT22;11950;51.230;4.012;2022-11-20T09:27:02;7.40;99.90
23544;DHT22;11950;51.230;4.012;2022-11-20T09:29:29;7.40;99.90
23544;DHT22;11950;51.230;4.012;2022-11-20T09:31:55;7.40;99.90
23544;DHT22;11950;51.230;4.012;2022-11-20T09:34:21;7.40;99.90
23544;DHT22;11950;51.230;4.012;2022-11-20T09:36:47;7.50;99.90
23544;DHT22;11950;51.230;4.012;2022-11-20T09:39:13;7.50;99.90
23544;DHT22;11950;51.230;4.012;2022-11-20T09:55:39;7.60;99.90
23544;DHT22;11950;51.230;4.012;2022-11-20T09:58:07;7.60;99.90
23544;DHT22;11950;51.230;4.012;2022-11-20T10:00:38;7.60;99.90
23544;DHT22;11950;51.230;4.012;2022-11-20T10:03:18;7.60;99.90
23544;DHT22;11950;51.230;4.012;2022-11-20T10:05:48;7.70;99.90
23544;DHT22;11950;51.230;4.012;2022-11-20T10:08:39;7.70;99.90
23544;DHT22;11950;51.230;4.012;2022-11-20T10:11:18;7.80;99.90
23544;DHT22;11950;51.230;4.012;2022-11-20T10:16:50;7.80;99.90
23544;DHT22;11950;51.230;4.012;2022-11-20T10:22:34;7.90;99.90
23544;DHT22;11950;51.230;4.012;2022-11-20T10:27:56;8.00;99.90
23544;DHT22;11950;51.230;4.012;2022-11-20T10:30:27;8.10;99.90
23544;DHT22;11950;51.230;4.012;2022-11-20T10:36:19;8.20;99.90
23544;DHT22;11950;51.230;4.012;2022-11-20T10:38:54;8.20;99.90
23544;DHT22;11950;51.230;4.012;2022-11-20T10:41:39;8.20;99.90
23544;DHT22;11950;51.230;4.012;2022-11-20T10:44:15;8.40;99.90
23544;DHT22;11950;51.230;4.012;2022-11-20T10:47:14;8.40;99.90
23544;DHT22;11950;51.230;4.012;2022-11-20T10:49:42;8.50;99.90
23544;DHT22;11950;51.230;4.012;2022-11-20T10:52:48;8.50;99.90
23544;DHT22;11950;51.230;4.012;2022-11-20T10:55:55;8.60;99.90
23544;DHT22;11950;51.230;4.012;2022-11-20T11:00:51;8.70;99.90
23544;DHT22;11950;51.230;4.012;2022-11-20T11:03:25;8.70;99.90
23544;DHT22;11950;51.230;4.012;2022-11-20T11:06:14;8.70;99.90
23544;DHT22;11950;51.230;4.012;2022-11-20T11:08:44;8.80;99.90
23544;DHT22;11950;51.230;4.012;2022-11-20T11:11:27;8.80;99.90
23544;DHT22;11950;51.230;4.012;2022-11-20T11:14:05;8.90;99.90
23544;DHT22;11950;51.230;4.012;2022-11-20T11:16:32;9.00;99.90
23544;DHT22;11950;51.230;4.012;2022-11-20T11:19:27;9.10;99.90
23544;DHT22;11950;51.230;4.012;2022-11-20T11:21:54;9.20;99.90
23544;DHT22;11950;51.230;4.012;2022-11-20T11:24:27;9.20;99.90
23544;DHT22;11950;51.230;4.012;2022-11-20T11:26:57;9.30;99.90
23544;DHT22;11950;51.230;4.012;2022-11-20T11:29:25;9.40;99.90
23544;DHT22;11950;51.230;4.012;2022-11-20T11:32:12;9.40;99.90
23544;DHT22;11950;51.230;4.012;2022-11-20T11:34:39;9.50;99.90
23544;DHT22;11950;51.230;4.012;2022-11-20T11:37:19;9.60;99.90
23544;DHT22;11950;51.230;4.012;2022-11-20T11:39:47;9.60;99.90
23544;DHT22;11950;51.230;4.012;2022-11-20T11:42:18;9.60;99.90
23544;DHT22;11950;51.230;4.012;2022-11-20T11:44:47;9.70;99.90
23544;DHT22;11950;51.230;4.012;2022-11-20T11:47:45;9.70;99.90
23544;DHT22;11950;51.230;4.012;2022-11-20T11:50:16;9.80;99.90
23544;DHT22;11950;51.230;4.012;2022-11-20T11:55:54;9.90;99.90
23544;DHT22;11950;51.230;4.012;2022-11-20T11:58:43;9.90;99.90
23544;DHT22;11950;51.230;4.012;2022-11-20T12:01:37;9.90;99.90
23544;DHT22;11950;51.230;4.012;2022-11-20T12:04:46;9.90;99.90
23544;DHT22;11950;51.230;4.012;2022-11-20T12:07:38;9.90;99.90
23544;DHT22;11950;51.230;4.012;2022-11-20T12:10:09;10.00;99.90
23544;DHT22;11950;51.230;4.012;2022-11-20T12:12:44;10.00;99.90
23544;DHT22;11950;51.230;4.012;2022-11-20T12:15:22;10.00;99.90
23544;DHT22;11950;51.230;4.012;2022-11-20T12:17:48;9.90;99.90
23544;DHT22;11950;51.230;4.012;2022-11-20T12:20:15;10.00;99.90
23544;DHT22;11950;51.230;4.012;2022-11-20T12:23:07;10.00;99.90
23544;DHT22;11950;51.230;4.012;2022-11-20T12:25:36;10.00;99.90
23544;DHT22;11950;51.230;4.012;2022-11-20T12:37:03;10.00;99.90
23544;DHT22;11950;51.230;4.012;2022-11-20T12:39:42;10.00;99.90
23544;DHT22;11950;51.230;4.012;2022-11-20T12:48:19;9.90;99.90
23544;DHT22;11950;51.230;4.012;2022-11-20T12:56:53;9.90;99.90
23544;DHT22;11950;51.230;4.012;2022-11-20T13:02:33;9.90;99.90
23544;DHT22;11950;51.230;4.012;2022-11-20T13:05:12;9.90;99.90
23544;DHT22;11950;51.230;4.012;2022-11-20T13:07:40;9.90;99.90
23544;DHT22;11950;51.230;4.012;2022-11-20T13:10:20;9.90;99.90
23544;DHT22;11950;51.230;4.012;2022-11-20T13:12:57;9.90;99.90
23544;DHT22;11950;51.230;4.012;2022-11-20T13:18:09;9.90;99.90
23544;DHT22;11950;51.230;4.012;2022-11-20T13:20:45;10.00;99.90
23544;DHT22;11950;51.230;4.012;2022-11-20T13:23:22;10.00;99.90
23544;DHT22;11950;51.230;4.012;2022-11-20T13:25:48;9.90;99.90
23544;DHT22;11950;51.230;4.012;2022-11-20T13:30:52;9.90;99.90
23544;DHT22;11950;51.230;4.012;2022-11-20T13:33:31;9.90;99.90
23544;DHT22;11950;51.230;4.012;2022-11-20T13:36:21;9.90;99.90
23544;DHT22;11950;51.230;4.012;2022-11-20T13:38:51;9.90;99.90
23544;DHT22;11950;51.230;4.012;2022-11-20T13:41:29;9.90;99.90
23544;DHT22;11950;51.230;4.012;2022-11-20T13:46:53;9.90;99.90
23544;DHT22;11950;51.230;4.012;2022-11-20T13:49:34;10.00;99.90
23544;DHT22;11950;51.230;4.012;2022-11-20T13:52:32;10.00;99.90
23544;DHT22;11950;51.230;4.012;2022-11-20T14:00:52;10.00;99.90
23544;DHT22;11950;51.230;4.012;2022-11-20T14:03:22;10.00;99.90
23544;DHT22;11950;51.230;4.012;2022-11-20T14:05:52;10.10;99.90
23544;DHT22;11950;51.230;4.012;2022-11-20T14:08:41;10.10;99.90
23544;DHT22;11950;51.230;4.012;2022-11-20T14:11:18;10.00;99.90
23544;DHT22;11950;51.230;4.012;2022-11-20T14:14:10;10.00;99.90
23544;DHT22;11950;51.230;4.012;2022-11-20T14:16:39;10.10;99.90
23544;DHT22;11950;51.230;4.012;2022-11-20T14:21:47;10.10;99.90
23544;DHT22;11950;51.230;4.012;2022-11-20T14:24:18;10.00;99.90
23544;DHT22;11950;51.230;4.012;2022-11-20T14:26:45;10.10;99.90
23544;DHT22;11950;51.230;4.012;2022-11-20T14:29:26;10.10;99.90
23544;DHT22;11950;51.230;4.012;2022-11-20T14:31:54;10.10;99.90
23544;DHT22;11950;51.230;4.012;2022-11-20T14:34:25;10.20;99.90
23544;DHT22;11950;51.230;4.012;2022-11-20T14:37:02;10.20;99.90
23544;DHT22;11950;51.230;4.012;2022-11-20T14:39:40;10.20;99.90
23544;DHT22;11950;51.230;4.012;2022-11-20T14:42:24;10.20;99.90
23544;DHT22;11950;51.230;4.012;2022-11-20T14:44:52;10.20;99.90
23544;DHT22;11950;51.230;4.012;2022-11-20T14:47:29;10.30;99.90
23544;DHT22;11950;51.230;4.012;2022-11-20T14:49:56;10.30;99.90
23544;DHT22;11950;51.230;4.012;2022-11-20T14:52:25;10.30;99.90
23544;DHT22;11950;51.230;4.012;2022-11-20T14:54:57;10.30;99.90
23544;DHT22;11950;51.230;4.012;2022-11-20T15:02:48;10.40;99.90
23544;DHT22;11950;51.230;4.012;2022-11-20T15:05:17;10.40;99.90
23544;DHT22;11950;51.230;4.012;2022-11-20T15:07:50;10.50;99.90
23544;DHT22;11950;51.230;4.012;2022-11-20T15:10:22;10.50;99.90
23544;DHT22;11950;51.230;4.012;2022-11-20T15:12:54;10.50;99.90
23544;DHT22;11950;51.230;4.012;2022-11-20T15:17:54;10.60;99.90
23544;DHT22;11950;51.230;4.012;2022-11-20T15:20:22;10.60;99.90
23544;DHT22;11950;51.230;4.012;2022-11-20T15:22:50;10.70;99.90
23544;DHT22;11950;51.230;4.012;2022-11-20T15:25:17;10.70;99.90
23544;DHT22;11950;51.230;4.012;2022-11-20T15:27:44;10.70;99.90
23544;DHT22;11950;51.230;4.012;2022-11-20T15:30:16;10.70;99.90
23544;DHT22;11950;51.230;4.012;2022-11-20T15:32:43;10.70;99.90
23544;DHT22;11950;51.230;4.012;2022-11-20T15:35:10;10.70;99.90
23544;DHT22;11950;51.230;4.012;2022-11-20T15:37:37;10.70;99.90
23544;DHT22;11950;51.230;4.012;2022-11-20T15:40:04;10.70;99.90
23544;DHT22;11950;51.230;4.012;2022-11-20T15:42:32;10.70;99.90
23544;DHT22;11950;51.230;4.012;2022-11-20T15:44:58;10.60;99.90
23544;DHT22;11950;51.230;4.012;2022-11-20T15:47:33;10.70;99.90
23544;DHT22;11950;51.230;4.012;2022-11-20T15:50:00;10.70;99.90
23544;DHT22;11950;51.230;4.012;2022-11-20T15:52:26;10.70;99.90
23544;DHT22;11950;51.230;4.012;2022-11-20T15:54:52;10.60;99.90
23544;DHT22;11950;51.230;4.012;2022-11-20T15:57:19;10.60;99.90
23544;DHT22;11950;51.230;4.012;2022-11-20T15:59:45;10.70;99.90
23544;DHT22;11950;51.230;4.012;2022-11-20T16:02:12;10.60;99.90
23544;DHT22;11950;51.230;4.012;2022-11-20T16:04:38;10.60;99.90
23544;DHT22;11950;51.230;4.012;2022-11-20T16:07:05;10.70;99.90
23544;DHT22;11950;51.230;4.012;2022-11-20T16:09:31;10.70;99.90
23544;DHT22;11950;51.230;4.012;2022-11-20T16:11:58;10.70;99.90
23544;DHT22;11950;51.230;4.012;2022-11-20T16:14:27;10.70;99.90
23544;DHT22;11950;51.230;4.012;2022-11-20T16:17:12;10.70;99.90
23544;DHT22;11950;51.230;4.012;2022-11-20T16:19:39;10.60;99.90
23544;DHT22;11950;51.230;4.012;2022-11-20T16:22:05;10.60;99.90
23544;DHT22;11950;51.230;4.012;2022-11-20T16:24:32;10.60;99.90
23544;DHT22;11950;51.230;4.012;2022-11-20T16:26:58;10.60;99.90
23544;DHT22;11950;51.230;4.012;2022-11-20T16:29:24;10.60;99.90
23544;DHT22;11950;51.230;4.012;2022-11-20T16:31:50;10.60;99.90
23544;DHT22;11950;51.230;4.012;2022-11-20T16:34:16;10.60;99.90
23544;DHT22;11950;51.230;4.012;2022-11-20T16:36:44;11.10;99.90
23544;DHT22;11950;51.230;4.012;2022-11-20T16:39:11;10.60;99.90
23544;DHT22;11950;51.230;4.012;2022-11-20T16:41:38;10.60;99.90
23544;DHT22;11950;51.230;4.012;2022-11-20T16:44:09;10.60;99.90
23544;DHT22;11950;51.230;4.012;2022-11-20T16:46:36;10.50;99.90
23544;DHT22;11950;51.230;4.012;2022-11-20T16:49:11;10.60;99.90
23544;DHT22;11950;51.230;4.012;2022-11-20T16:51:37;10.60;99.90
23544;DHT22;11950;51.230;4.012;2022-11-20T16:54:08;10.60;99.90
23544;DHT22;11950;51.230;4.012;2022-11-20T16:56:35;10.60;99.90
23544;DHT22;11950;51.230;4.012;2022-11-20T16:59:02;10.60;99.90
23544;DHT22;11950;51.230;4.012;2022-11-20T17:01:29;10.60;99.90
23544;DHT22;11950;51.230;4.012;2022-11-20T17:04:02;10.60;99.90
23544;DHT22;11950;51.230;4.012;2022-11-20T17:06:31;10.50;99.90
23544;DHT22;11950;51.230;4.012;2022-11-20T17:08:57;10.50;99.90
23544;DHT22;11950;51.230;4.012;2022-11-20T17:11:24;10.50;99.90
23544;DHT22;11950;51.230;4.012;2022-11-20T17:13:51;10.50;99.90
23544;DHT22;11950;51.230;4.012;2022-11-20T17:16:22;10.40;99.90
23544;DHT22;11950;51.230;4.012;2022-11-20T17:18:49;10.40;99.90
23544;DHT22;11950;51.230;4.012;2022-11-20T17:21:17;10.40;99.90
23544;DHT22;11950;51.230;4.012;2022-11-20T17:23:45;10.40;99.90
23544;DHT22;11950;51.230;4.012;2022-11-20T17:26:16;10.40;99.90